Time;durP1;ratioP1;P1;durP2;ratioP2;P2;SDS_P1;SDS_P2;PMS_P1;PMS_P2;Temp;Humidity;BMP_temperature;BMP_pressure;BME280_temperature;BME280_humidity;BME280_pressure;Samples;Min_cycle;Max_cycle;Signal;HPM_P1;HPM_P2
2021/06/25 00:01:04;;;;;;;6.28;1.80;;;;;;;15.02;72.83;101556.84;3561442;40;20060;-80
2021/06/25 00:03:33;;;;;;;4.90;1.60;;;;;;;14.98;72.22;101557.81;3575789;40;20085;-80
2021/06/25 00:06:02;;;;;;;5.60;1.73;;;;;;;14.89;73.04;101539.66;3573644;40;20049;-80
2021/06/25 00:08:31;;;;;;;6.07;1.88;;;;;;;14.94;73.78;101558.81;3580199;40;20067;-80
2021/06/25 00:10:58;;;;;;;4.60;1.80;;;;;;;14.84;73.78;101536.28;3577205;40;20073;-80
2021/06/25 00:13:30;;;;;;;5.25;1.70;;;;;;;14.92;73.60;101548.34;3559447;40;20052;-80
2021/06/25 00:15:57;;;;;;;6.18;1.83;;;;;;;14.86;72.25;101542.38;3552171;40;20091;-80
2021/06/25 00:18:26;;;;;;;5.25;1.75;;;;;;;14.84;74.13;101526.63;3571758;40;20063;-80
2021/06/25 00:21:17;;;;;;;6.35;1.73;;;;;;;14.92;73.10;101531.69;3582792;40;20049;-80
2021/06/25 00:23:44;;;;;;;4.03;1.77;;;;;;;14.84;72.99;101531.03;3573285;40;20056;-80
2021/06/25 00:26:12;;;;;;;6.53;1.90;;;;;;;14.87;74.23;101528.34;3582046;40;20060;-80
2021/06/25 00:28:45;;;;;;;6.20;1.63;;;;;;;14.85;73.37;101525.75;3575946;40;20725;-80
2021/06/25 00:31:38;;;;;;;6.22;1.80;;;;;;;14.88;73.02;101524.78;3558705;40;20097;-79
2021/06/25 00:34:05;;;;;;;4.82;2.00;;;;;;;14.78;72.77;101524.16;3573854;40;20437;-80
2021/06/25 00:36:32;;;;;;;5.13;1.63;;;;;;;14.77;73.19;101523.31;3569774;40;20060;-80
2021/06/25 00:39:01;;;;;;;4.55;1.50;;;;;;;14.76;74.03;101521.59;3550911;40;20795;-79
2021/06/25 00:41:30;;;;;;;4.38;1.70;;;;;;;14.82;73.76;101527.59;3581321;40;20056;-80
2021/06/25 00:44:04;;;;;;;4.75;1.85;;;;;;;14.84;72.73;101533.66;3573086;40;20041;-79
2021/06/25 00:46:31;;;;;;;8.43;2.00;;;;;;;14.77;72.80;101538.22;3547896;40;20060;-80
2021/06/25 00:49:00;;;;;;;5.53;2.13;;;;;;;14.71;73.10;101523.47;3567954;40;20135;-80
2021/06/25 00:51:33;;;;;;;6.35;1.77;;;;;;;14.78;72.35;101519.78;3552325;40;20061;-79
2021/06/25 00:54:26;;;;;;;5.07;1.73;;;;;;;14.78;72.90;101534.69;3550117;40;20539;-80
2021/06/25 00:56:53;;;;;;;4.95;1.77;;;;;;;14.69;72.89;101541.03;3561516;40;20057;-79
2021/06/25 00:59:46;;;;;;;4.55;1.65;;;;;;;14.74;72.64;101544.41;3565744;40;20637;-80
2021/06/25 01:02:19;;;;;;;5.13;1.85;;;;;;;14.64;72.92;101529.78;3564534;40;20106;-79
2021/06/25 01:04:48;;;;;;;4.45;1.70;;;;;;;14.59;72.66;101534.31;3545638;40;20107;-80
2021/06/25 01:07:16;;;;;;;4.00;1.60;;;;;;;14.63;71.67;101557.00;3567017;40;20090;-79
2021/06/25 01:09:45;;;;;;;4.32;1.60;;;;;;;14.60;71.28;101543.06;3544388;40;20182;-79
2021/06/25 01:12:13;;;;;;;4.47;1.70;;;;;;;14.58;70.50;101543.09;3540497;40;20048;-79
2021/06/25 01:14:41;;;;;;;5.07;1.73;;;;;;;14.56;69.71;101544.06;3558603;40;20445;-80
2021/06/25 01:17:30;;;;;;;4.75;1.65;;;;;;;14.57;70.67;101551.88;3540109;40;20065;-80
2021/06/25 01:20:03;;;;;;;4.57;1.73;;;;;;;14.50;69.43;101545.09;3549957;40;20056;-80
2021/06/25 01:22:35;;;;;;;3.70;1.42;;;;;;;14.43;69.61;101541.69;3569190;40;20051;-79
2021/06/25 01:25:16;;;;;;;4.75;1.50;;;;;;;14.44;69.35;101542.53;3527287;40;20344;-80
2021/06/25 01:27:45;;;;;;;5.07;1.52;;;;;;;14.26;68.87;101521.09;3552630;40;20060;-80
2021/06/25 01:30:22;;;;;;;4.85;1.60;;;;;;;14.30;68.58;101534.16;3569885;40;20057;-79
2021/06/25 01:33:16;;;;;;;6.33;1.33;;;;;;;14.28;69.67;101540.31;3547351;40;20045;-80
2021/06/25 01:35:43;;;;;;;2.97;1.02;;;;;;;14.16;67.50;101530.09;3542133;40;20267;-80
2021/06/25 01:38:40;;;;;;;3.45;1.40;;;;;;;14.17;69.38;101537.09;3557425;40;22861;-80
2021/06/25 01:41:07;;;;;;;5.65;1.70;;;;;;;14.05;67.62;101537.38;3555548;40;20484;-80
2021/06/25 01:43:40;;;;;;;4.17;1.23;;;;;;;14.07;69.08;101540.81;3568257;40;20047;-79
2021/06/25 01:46:08;;;;;;;3.00;1.13;;;;;;;13.99;69.43;101540.16;3574390;40;20065;-80
2021/06/25 01:48:34;;;;;;;5.47;1.25;;;;;;;13.94;67.76;101534.16;3545849;40;20055;-79
2021/06/25 01:51:02;;;;;;;6.15;1.17;;;;;;;13.96;69.79;101534.97;3560824;40;20054;-79
2021/06/25 01:53:28;;;;;;;6.37;1.33;;;;;;;13.87;67.20;101522.06;3563128;40;20399;-79
2021/06/25 01:56:00;;;;;;;2.97;1.07;;;;;;;13.80;67.39;101516.09;3561576;40;20304;-79
2021/06/25 01:58:30;;;;;;;4.20;1.17;;;;;;;13.86;67.40;101531.69;3555106;40;20092;-79
2021/06/25 02:01:16;;;;;;;3.30;1.35;;;;;;;13.88;68.25;101529.03;3579035;40;20081;-80
2021/06/25 02:03:46;;;;;;;3.15;1.10;;;;;;;13.86;67.82;101536.09;3567646;40;20053;-80
2021/06/25 02:06:14;;;;;;;3.47;1.10;;;;;;;13.75;67.66;101521.44;3568277;40;20056;-80
2021/06/25 02:08:44;;;;;;;5.43;1.42;;;;;;;13.81;67.70;101519.56;3565662;40;20033;-80
2021/06/25 02:11:14;;;;;;;3.25;1.08;;;;;;;13.81;66.93;101530.94;3580499;40;20812;-79
2021/06/25 02:13:43;;;;;;;4.00;1.25;;;;;;;13.79;66.96;101526.59;3569278;40;20041;-80
2021/06/25 02:16:10;;;;;;;3.92;1.15;;;;;;;13.79;67.71;101531.84;3556909;40;20556;-80
2021/06/25 02:18:38;;;;;;;3.25;1.20;;;;;;;13.70;67.27;101528.56;3560151;40;20061;-79
2021/06/25 02:21:11;;;;;;;4.53;1.38;;;;;;;13.79;67.80;101535.38;3578746;40;20049;-79
2021/06/25 02:23:39;;;;;;;3.47;1.20;;;;;;;13.68;66.25;101516.34;3545229;40;20078;-79
2021/06/25 02:26:08;;;;;;;2.33;1.02;;;;;;;13.69;65.96;101524.22;3559785;40;20055;-80
2021/06/25 02:28:37;;;;;;;2.97;1.10;;;;;;;13.66;67.26;101529.50;3582299;40;20060;-80
2021/06/25 02:31:10;;;;;;;3.83;1.08;;;;;;;13.67;67.40;101519.88;3561575;40;20072;-80
2021/06/25 02:33:39;;;;;;;3.15;1.17;;;;;;;13.65;67.65;101532.19;3546066;40;20040;-80
2021/06/25 02:36:10;;;;;;;3.13;1.00;;;;;;;13.64;67.56;101520.81;3574670;40;20048;-80
2021/06/25 02:38:39;;;;;;;3.00;0.77;;;;;;;13.63;66.83;101518.22;3556624;40;20048;-80
2021/06/25 02:41:06;;;;;;;3.08;1.05;;;;;;;13.47;67.31;101501.94;3578152;40;20049;-81
2021/06/25 02:43:35;;;;;;;1.67;0.60;;;;;;;13.64;67.07;101520.81;3564438;40;20067;-79
2021/06/25 02:46:02;;;;;;;2.55;0.90;;;;;;;13.56;66.38;101501.75;3548545;40;20771;-80
2021/06/25 02:48:29;;;;;;;4.17;0.90;;;;;;;13.49;67.31;101494.94;3545161;40;20054;-79
2021/06/25 02:50:56;;;;;;;3.33;1.00;;;;;;;13.50;66.69;101480.91;3567588;40;20032;-80
2021/06/25 02:53:27;;;;;;;2.47;0.88;;;;;;;13.60;65.94;101497.31;3573836;40;20605;-80
2021/06/25 02:55:56;;;;;;;3.70;0.95;;;;;;;13.55;67.00;101494.78;3562388;40;20068;-80
2021/06/25 02:58:25;;;;;;;5.78;1.13;;;;;;;13.53;66.85;101486.06;3585205;40;20437;-79
2021/06/25 03:00:55;;;;;;;3.25;0.90;;;;;;;13.47;66.73;101494.06;3546787;40;20045;-79
2021/06/25 03:03:46;;;;;;;7.80;1.20;;;;;;;13.55;67.47;101504.41;3581169;40;20049;-79
2021/06/25 03:06:15;;;;;;;2.15;0.98;;;;;;;13.47;66.46;101491.44;3554684;40;20046;-79
2021/06/25 03:08:43;;;;;;;3.33;1.10;;;;;;;13.46;67.90;101485.34;3573130;40;20076;-79
2021/06/25 03:11:16;;;;;;;2.90;0.90;;;;;;;13.46;66.60;101489.72;3561178;40;20065;-79
2021/06/25 03:13:45;;;;;;;4.22;1.38;;;;;;;13.39;66.34;101475.91;3554943;40;20068;-79
2021/06/25 03:16:13;;;;;;;3.38;0.77;;;;;;;13.38;67.17;101484.66;3549272;40;20041;-79
2021/06/25 03:18:49;;;;;;;3.58;0.85;;;;;;;13.39;66.86;101493.41;3573578;40;20418;-79
2021/06/25 03:21:20;;;;;;;3.22;0.98;;;;;;;13.36;66.68;101488.22;3556516;40;20412;-79
2021/06/25 03:23:48;;;;;;;3.78;1.15;;;;;;;13.32;66.12;101465.56;3560497;40;20044;-80
2021/06/25 03:26:17;;;;;;;6.68;1.17;;;;;;;13.27;65.99;101456.91;3546558;40;20153;-79
2021/06/25 03:28:49;;;;;;;2.88;1.00;;;;;;;13.22;65.81;101465.75;3567012;40;20041;-79
2021/06/25 03:31:21;;;;;;;5.13;1.30;;;;;;;13.20;66.03;101470.13;3524720;40;20062;-79
2021/06/25 03:33:49;;;;;;;4.95;0.98;;;;;;;13.12;66.03;101469.44;3542566;40;21385;-79
2021/06/25 03:36:16;;;;;;;4.70;0.90;;;;;;;13.01;66.27;101474.03;3572621;40;20386;-80
2021/06/25 03:38:45;;;;;;;4.82;0.80;;;;;;;13.00;66.42;101480.19;3558035;40;20816;-79
2021/06/25 03:41:14;;;;;;;3.67;0.90;;;;;;;12.94;66.29;101485.56;3579174;39;20361;-79
2021/06/25 03:43:47;;;;;;;2.45;0.85;;;;;;;12.90;67.32;101487.38;3566381;40;20136;-79
2021/06/25 03:46:17;;;;;;;3.15;1.10;;;;;;;12.84;67.10;101478.75;3553516;40;20056;-79
2021/06/25 03:48:45;;;;;;;4.35;1.05;;;;;;;12.80;68.01;101477.09;3567311;40;20046;-80
2021/06/25 03:51:12;;;;;;;;;;;;;;;12.84;67.79;101474.38;3575486;40;20085;-79
2021/06/25 03:53:39;;;;;;;5.03;1.13;;;;;;;12.78;67.45;101477.13;3554210;40;20261;-79
2021/06/25 03:56:10;;;;;;;3.70;0.80;;;;;;;12.78;67.30;101485.00;3577133;39;20075;-79
2021/06/25 03:58:48;;;;;;;3.45;1.25;;;;;;;12.81;67.59;101489.28;3572612;40;20087;-80
2021/06/25 04:01:19;;;;;;;1.88;0.85;;;;;;;12.81;67.25;101494.53;3571334;39;20056;-79
2021/06/25 04:03:46;;;;;;;3.15;0.90;;;;;;;12.80;67.47;101492.81;3545064;40;20390;-79
2021/06/25 04:06:16;;;;;;;4.25;1.17;;;;;;;12.81;67.76;101486.69;3585565;40;20349;-79
2021/06/25 04:08:47;;;;;;;4.50;0.82;;;;;;;12.83;67.95;101484.91;3572145;40;20083;-79
2021/06/25 04:11:18;;;;;;;4.85;1.10;;;;;;;12.88;67.70;101485.69;3549639;40;20442;-80
2021/06/25 04:13:48;;;;;;;3.75;0.80;;;;;;;12.87;68.41;101473.44;3546422;40;20789;-79
2021/06/25 04:16:17;;;;;;;5.00;1.00;;;;;;;12.89;68.08;101462.06;3567205;40;20063;-79
2021/06/25 04:18:44;;;;;;;3.00;0.80;;;;;;;12.90;67.99;101452.41;3571893;40;20055;-79
2021/06/25 04:21:11;;;;;;;;;;;;;;;13.01;68.11;101455.69;3555960;40;20670;-80
2021/06/25 04:23:39;;;;;;;10.30;1.07;;;;;;;12.96;67.11;101441.81;3562302;40;19944;-79
2021/06/25 04:26:07;;;;;;;;;;;;;;;13.02;67.84;101448.69;3557805;40;20065;-79
2021/06/25 04:28:43;;;;;;;4.05;0.85;;;;;;;12.99;68.03;101449.63;3571261;40;19988;-79
2021/06/25 04:31:11;;;;;;;3.35;1.00;;;;;;;12.95;67.43;101450.56;3548069;40;20056;-79
2021/06/25 04:33:40;;;;;;;4.90;1.13;;;;;;;12.95;67.88;101466.31;3572910;40;20056;-79
2021/06/25 04:36:07;;;;;;;4.22;1.00;;;;;;;12.90;68.85;101462.91;3563453;40;20045;-78
2021/06/25 04:38:35;;;;;;;2.50;1.00;;;;;;;12.90;67.73;101468.16;3566649;40;20113;-79
2021/06/25 04:41:03;;;;;;;2.17;0.90;;;;;;;12.93;67.58;101474.22;3572811;40;20061;-79
2021/06/25 04:43:32;;;;;;;2.60;0.98;;;;;;;12.98;68.20;101479.34;3541817;40;20141;-79
2021/06/25 04:46:00;;;;;;;3.10;0.90;;;;;;;12.98;68.04;101476.75;3550866;40;20072;-79
2021/06/25 04:48:28;;;;;;;4.40;1.20;;;;;;;12.97;68.65;101470.59;3589388;40;20060;-79
2021/06/25 04:50:57;;;;;;;3.53;1.08;;;;;;;12.97;67.75;101469.75;3552628;40;20073;-79
2021/06/25 04:53:27;;;;;;;4.80;1.20;;;;;;;13.04;67.59;101465.25;3579689;40;20053;-79
2021/06/25 04:55:55;;;;;;;4.03;1.10;;;;;;;13.07;68.00;101470.41;3566114;40;20049;-79
2021/06/25 04:58:28;;;;;;;2.97;1.10;;;;;;;13.10;67.67;101468.59;3566082;40;20044;-79
2021/06/25 05:00:59;;;;;;;4.80;1.15;;;;;;;13.12;67.73;101477.28;3557020;40;20045;-79
2021/06/25 05:03:36;;;;;;;3.75;1.00;;;;;;;13.13;67.30;101476.41;3567757;40;20051;-79
2021/06/25 05:06:05;;;;;;;4.70;1.20;;;;;;;13.12;67.54;101485.16;3572527;40;20115;-79
2021/06/25 05:08:37;;;;;;;2.17;0.75;;;;;;;13.05;67.73;101457.34;3574116;40;20088;-79
2021/06/25 05:11:05;;;;;;;3.72;1.10;;;;;;;13.06;67.15;101474.81;3580497;40;20470;-79
2021/06/25 05:13:39;;;;;;;4.28;1.10;;;;;;;13.16;67.68;101476.34;3566057;40;20046;-79
2021/06/25 05:16:06;;;;;;;10.90;1.45;;;;;;;13.10;67.20;101459.88;3571284;40;20085;-79
2021/06/25 05:18:41;;;;;;;3.80;1.30;;;;;;;13.20;67.63;101466.66;3556573;40;20127;-79
2021/06/25 05:21:22;;;;;;;3.33;1.20;;;;;;;13.16;67.01;101454.50;3556663;40;20408;-79
2021/06/25 05:23:50;;;;;;;3.58;1.10;;;;;;;13.16;67.39;101459.75;3571283;40;20056;-79
2021/06/25 05:26:20;;;;;;;5.88;1.52;;;;;;;13.21;67.33;101474.50;3563558;40;20060;-79
2021/06/25 05:28:48;;;;;;;5.32;1.33;;;;;;;13.19;67.19;101476.28;3557292;40;20050;-79
2021/06/25 05:31:37;;;;;;;3.33;0.98;;;;;;;13.29;67.76;101494.50;3566928;40;20403;-79
2021/06/25 05:34:04;;;;;;;3.25;1.23;;;;;;;13.19;67.96;101481.53;3554630;40;20040;-79
2021/06/25 05:36:31;;;;;;;3.88;1.08;;;;;;;13.26;67.02;101491.91;3575273;40;20932;-79
2021/06/25 05:38:59;;;;;;;10.00;1.60;;;;;;;13.26;67.33;101486.69;3572071;40;20484;-79
2021/06/25 05:41:26;;;;;;;5.10;1.48;;;;;;;13.29;66.77;101492.72;3569345;40;20038;-79
2021/06/25 05:43:54;;;;;;;4.03;1.02;;;;;;;13.25;67.20;101485.81;3565058;40;20600;-79
2021/06/25 05:46:22;;;;;;;4.18;0.95;;;;;;;13.22;67.32;101481.47;3571427;40;20068;-79
2021/06/25 05:48:49;;;;;;;5.15;1.40;;;;;;;13.28;67.77;101485.75;3566609;40;20367;-78
2021/06/25 05:51:17;;;;;;;3.75;1.23;;;;;;;13.37;67.33;101490.78;3564678;40;20060;-79
2021/06/25 05:53:44;;;;;;;3.22;1.10;;;;;;;13.35;67.27;101487.34;3565817;40;20070;-79
2021/06/25 05:56:12;;;;;;;5.10;1.10;;;;;;;13.40;67.49;101492.50;3548755;40;20095;-79
2021/06/25 05:58:39;;;;;;;5.45;1.08;;;;;;;13.39;67.29;101472.41;3557056;40;20060;-79
2021/06/25 06:01:09;;;;;;;4.37;1.23;;;;;;;13.44;67.07;101481.03;3581515;40;20053;-79
2021/06/25 06:03:38;;;;;;;4.90;1.08;;;;;;;13.39;66.74;101478.53;3573749;40;20085;-79
2021/06/25 06:06:06;;;;;;;5.88;1.30;;;;;;;13.43;67.14;101489.78;3554600;40;20369;-79
2021/06/25 06:08:37;;;;;;;5.65;1.02;;;;;;;13.49;67.05;101489.69;3573141;40;20381;-79
2021/06/25 06:11:05;;;;;;;2.30;1.10;;;;;;;13.49;67.41;101489.69;3542641;40;20060;-79
2021/06/25 06:13:33;;;;;;;4.85;1.23;;;;;;;13.52;67.64;101493.97;3536649;40;20053;-79
2021/06/25 06:16:08;;;;;;;4.47;1.00;;;;;;;13.56;67.05;101487.78;3563333;40;20042;-79
2021/06/25 06:18:48;;;;;;;6.15;1.55;;;;;;;13.49;66.64;101473.94;3556719;40;20100;-79
2021/06/25 06:21:22;;;;;;;4.72;1.08;;;;;;;13.63;67.29;101495.44;3571607;40;20473;-79
2021/06/25 06:32:24;;;;;;;7.13;1.65;;;;;;;13.75;66.76;101523.22;3559262;40;20049;-79
2021/06/25 06:34:52;;;;;;;3.03;1.13;;;;;;;13.68;66.90;101501.47;3550668;40;21527;-79
2021/06/25 06:37:21;;;;;;;3.17;1.08;;;;;;;13.69;67.60;101495.34;3559168;40;20054;-79
2021/06/25 06:39:48;;;;;;;4.63;1.10;;;;;;;13.75;66.71;101508.31;3556182;40;20750;-79
2021/06/25 06:42:24;;;;;;;5.80;1.20;;;;;;;13.81;66.82;101506.44;3563635;40;20074;-78
2021/06/25 06:44:51;;;;;;;3.65;1.10;;;;;;;13.80;66.96;101500.34;3557434;40;20048;-79
2021/06/25 06:47:20;;;;;;;4.20;1.05;;;;;;;13.75;67.22;101481.22;3558760;40;20065;-79
2021/06/25 06:49:48;;;;;;;6.18;2.03;;;;;;;13.88;66.14;101497.53;3574706;40;20062;-79
2021/06/25 06:52:20;;;;;;;5.22;1.23;;;;;;;13.90;66.94;101495.75;3558538;40;20078;-79
2021/06/25 06:54:47;;;;;;;9.18;1.63;;;;;;;13.90;66.35;101490.50;3553827;40;20101;-79
2021/06/25 06:57:16;;;;;;;3.45;1.10;;;;;;;13.97;66.89;101505.19;3567002;40;20061;-79
2021/06/25 06:59:43;;;;;;;6.35;1.23;;;;;;;13.94;67.08;101497.41;3566424;40;20053;-79
2021/06/25 07:02:13;;;;;;;4.37;1.07;;;;;;;13.95;66.98;101492.09;3556926;40;20049;-78
2021/06/25 07:04:46;;;;;;;6.45;1.20;;;;;;;14.04;66.96;101498.91;3562142;40;20836;-79
2021/06/25 07:07:13;;;;;;;5.53;1.38;;;;;;;13.97;66.76;101486.81;3543712;40;20041;-80
2021/06/25 07:09:40;;;;;;;7.10;1.47;;;;;;;13.96;66.55;101479.81;3563949;40;20049;-79
2021/06/25 07:12:08;;;;;;;7.97;1.55;;;;;;;14.10;66.63;101498.75;3573347;40;20053;-79
2021/06/25 07:14:35;;;;;;;6.18;1.77;;;;;;;14.16;66.51;101493.34;3565947;40;20062;-79
2021/06/25 07:17:03;;;;;;;6.70;1.10;;;;;;;14.24;67.19;101507.16;3570986;40;20049;-78
2021/06/25 07:19:30;;;;;;;6.10;1.15;;;;;;;14.21;66.38;101499.34;3567700;40;20406;-79
2021/06/25 07:22:01;;;;;;;8.43;1.10;;;;;;;14.34;67.23;101501.63;3567498;40;20049;-80
2021/06/25 07:24:28;;;;;;;5.55;1.13;;;;;;;14.28;66.77;101498.28;3573357;40;22229;-79
2021/06/25 07:26:58;;;;;;;4.63;1.03;;;;;;;14.44;66.44;101517.13;3564225;40;20451;-79
2021/06/25 07:29:27;;;;;;;6.95;1.30;;;;;;;14.48;66.12;101516.19;3559798;40;20042;-79
2021/06/25 07:31:56;;;;;;;6.05;1.42;;;;;;;14.52;65.36;101516.97;3565011;40;20375;-79
2021/06/25 07:34:23;;;;;;;5.63;1.30;;;;;;;14.54;66.15;101521.28;3552049;40;20139;-79
2021/06/25 07:36:51;;;;;;;4.68;1.35;;;;;;;14.60;65.14;101509.78;3569023;40;20084;-79
2021/06/25 07:39:18;;;;;;;6.82;1.45;;;;;;;14.48;65.22;101489.91;3555595;40;20094;-79
2021/06/25 07:41:45;;;;;;;6.60;0.97;;;;;;;14.63;66.09;101499.16;3575435;40;20358;-79
2021/06/25 07:44:12;;;;;;;5.80;1.23;;;;;;;14.77;65.33;101507.53;3576292;40;20604;-79
2021/06/25 07:46:39;;;;;;;4.00;1.30;;;;;;;14.77;65.45;101502.28;3573322;40;21101;-79
2021/06/25 07:49:06;;;;;;;5.85;1.35;;;;;;;14.92;65.51;101519.41;3587455;39;20288;-79
2021/06/25 07:51:33;;;;;;;4.37;1.40;;;;;;;14.99;65.02;101520.09;3579610;40;20060;-78
2021/06/25 07:54:05;;;;;;;5.47;1.30;;;;;;;15.16;65.89;101530.16;3578699;40;20048;-79
2021/06/25 07:56:32;;;;;;;5.05;1.23;;;;;;;15.17;64.30;101516.09;3567398;40;20082;-79
2021/06/25 07:59:00;;;;;;;4.72;1.00;;;;;;;15.29;64.71;101521.84;3575152;40;20045;-79
2021/06/25 08:01:31;;;;;;;3.58;1.08;;;;;;;15.37;64.96;101516.38;3575813;40;20053;-79
2021/06/25 08:03:58;;;;;;;7.82;1.70;;;;;;;15.41;64.33;101520.66;3557398;40;20103;-79
2021/06/25 08:06:25;;;;;;;5.97;1.55;;;;;;;15.44;63.02;101503.88;3575100;40;20061;-79
2021/06/25 08:08:52;;;;;;;5.93;0.93;;;;;;;15.55;62.61;101510.53;3579116;40;20077;-78
2021/06/25 08:11:23;;;;;;;4.40;0.93;;;;;;;15.67;63.96;101516.41;3578563;40;20100;-79
2021/06/25 08:13:50;;;;;;;4.15;1.00;;;;;;;15.62;63.14;101508.59;3570067;40;20057;-79
2021/06/25 08:16:19;;;;;;;6.20;1.13;;;;;;;15.77;63.03;101521.31;3564136;40;20337;-79
2021/06/25 08:18:46;;;;;;;3.10;0.95;;;;;;;15.76;62.86;101527.50;3566776;40;20288;-79
2021/06/25 08:21:17;;;;;;;4.27;1.33;;;;;;;15.83;62.99;101518.50;3565810;40;20351;-79
2021/06/25 08:23:49;;;;;;;2.72;1.05;;;;;;;15.87;63.42;101524.53;3570781;40;21048;-79
2021/06/25 08:26:16;;;;;;;3.88;0.85;;;;;;;15.89;62.80;101527.09;3571006;40;20052;-79
2021/06/25 08:28:44;;;;;;;2.43;0.70;;;;;;;15.94;62.99;101517.28;3577566;40;20057;-80
2021/06/25 08:31:11;;;;;;;6.30;1.20;;;;;;;16.00;62.50;101519.72;3575564;40;20097;-79
2021/06/25 08:33:38;;;;;;;3.78;0.90;;;;;;;16.01;62.48;101516.16;3560090;40;20049;-79
2021/06/25 08:36:05;;;;;;;3.30;0.88;;;;;;;15.96;62.15;101491.75;3572999;40;20074;-79
2021/06/25 08:38:33;;;;;;;;;;;;;;;16.29;65.08;101526.69;3574501;40;20069;-79
2021/06/25 08:41:01;;;;;;;2.70;0.85;;;;;;;16.24;61.58;101521.56;3569463;40;19952;-79
2021/06/25 08:43:29;;;;;;;5.57;1.35;;;;;;;16.35;60.58;101529.97;3558069;40;20049;-79
2021/06/25 08:46:01;;;;;;;5.25;1.02;;;;;;;16.38;61.75;101521.13;3554857;40;20054;-79
2021/06/25 08:48:29;;;;;;;3.72;1.05;;;;;;;16.43;61.70;101527.09;3569954;40;20057;-79
2021/06/25 08:50:58;;;;;;;6.90;0.85;;;;;;;16.45;60.48;101521.75;3558308;40;20046;-79
2021/06/25 08:53:25;;;;;;;3.28;0.85;;;;;;;16.39;59.92;101514.06;3571820;40;20057;-79
2021/06/25 08:55:52;;;;;;;5.22;1.30;;;;;;;16.41;60.60;101530.69;3564559;40;20085;-79
2021/06/25 08:58:21;;;;;;;3.88;1.15;;;;;;;16.40;59.85;101523.69;3555219;40;20074;-79
2021/06/25 09:00:51;;;;;;;4.80;0.85;;;;;;;16.45;60.55;101538.44;3567730;40;20058;-79
2021/06/25 09:03:26;;;;;;;3.67;0.90;;;;;;;16.44;61.25;101542.00;3571417;40;20053;-79
2021/06/25 09:06:15;;;;;;;4.20;0.93;;;;;;;16.41;62.20;101523.63;3565727;40;20458;-79
2021/06/25 09:08:47;;;;;;;3.20;1.10;;;;;;;16.34;60.46;101524.75;3565997;40;20465;-79
2021/06/25 09:11:32;;;;;;;4.53;1.20;;;;;;;16.31;61.36;101517.78;3549047;40;20081;-79
2021/06/25 09:14:03;;;;;;;4.47;0.80;;;;;;;16.28;60.73;101525.81;3564546;40;20088;-79
2021/06/25 09:16:35;;;;;;;6.55;1.30;;;;;;;16.24;61.04;101529.47;3564812;40;20419;-79
2021/06/25 09:19:16;;;;;;;3.40;0.80;;;;;;;16.22;61.09;101527.78;3554978;40;20049;-79
2021/06/25 09:22:02;;;;;;;3.45;0.98;;;;;;;16.18;62.31;101528.81;3560419;40;20083;-78
2021/06/25 09:24:30;;;;;;;3.28;1.10;;;;;;;16.11;60.56;101528.13;3561756;40;20077;-79
2021/06/25 09:27:01;;;;;;;;;;;;;;;16.15;63.36;101532.41;3562164;40;20493;-78
2021/06/25 09:29:36;;;;;;;4.90;0.90;;;;;;;16.09;61.99;101528.19;3562802;40;20190;-79
2021/06/25 09:32:10;;;;;;;2.90;0.63;;;;;;;16.02;61.19;101524.03;3555796;40;20486;-78
2021/06/25 09:34:48;;;;;;;6.30;1.35;;;;;;;15.94;61.08;101525.19;3553221;40;20085;-79
2021/06/25 09:37:17;;;;;;;3.85;0.82;;;;;;;15.95;61.26;101534.81;3565269;40;20045;-79
2021/06/25 09:40:04;;;;;;;7.38;0.85;;;;;;;15.93;62.54;101523.47;3576969;40;20064;-78
2021/06/25 09:42:32;;;;;;;4.18;0.95;;;;;;;15.90;61.88;101536.72;3570073;40;20077;-79
2021/06/25 09:45:15;;;;;;;4.75;1.00;;;;;;;15.93;62.37;101534.88;3570049;40;20061;-79
2021/06/25 09:47:52;;;;;;;4.03;0.85;;;;;;;15.87;62.20;101531.56;3562105;40;20504;-79
2021/06/25 09:50:32;;;;;;;3.47;0.80;;;;;;;15.89;62.20;101535.00;3558379;40;20199;-79
2021/06/25 09:53:01;;;;;;;1.95;0.90;;;;;;;15.87;61.41;101545.59;3566694;40;20057;-79
2021/06/25 10:03:56;;;;;;;2.70;0.68;;;;;;;15.90;61.56;101539.38;3584805;40;20056;-79
2021/06/25 10:06:32;;;;;;;4.95;0.90;;;;;;;15.95;61.37;101542.72;3563952;40;20053;-79
2021/06/25 10:09:04;;;;;;;2.45;0.77;;;;;;;15.96;62.21;101549.69;3578892;40;20060;-79
2021/06/25 10:11:33;;;;;;;2.70;0.70;;;;;;;15.97;61.63;101552.31;3570730;40;20424;-79
2021/06/25 10:14:03;;;;;;;5.63;1.02;;;;;;;15.98;60.81;101554.03;3566233;40;20094;-79
2021/06/25 10:16:31;;;;;;;3.97;1.40;;;;;;;15.99;61.18;101560.16;3575645;40;20056;-79
2021/06/25 10:19:02;;;;;;;3.13;1.00;;;;;;;16.00;61.70;101573.28;3580995;40;20126;-79
2021/06/25 10:21:32;;;;;;;4.15;0.90;;;;;;;16.01;60.32;101568.84;3559245;40;20457;-79
2021/06/25 10:24:02;;;;;;;5.22;1.10;;;;;;;15.97;61.14;101562.00;3563256;40;20057;-79
2021/06/25 10:26:30;;;;;;;2.75;0.98;;;;;;;15.96;60.66;101560.25;3576325;40;20876;-79
2021/06/25 10:29:00;;;;;;;3.63;0.98;;;;;;;16.02;61.63;101560.06;3570851;40;21577;-79
2021/06/25 10:31:29;;;;;;;2.58;0.75;;;;;;;16.02;61.95;101570.59;3560648;40;20069;-79
2021/06/25 10:33:56;;;;;;;2.47;0.73;;;;;;;15.94;60.57;101546.28;3565081;40;20053;-79
2021/06/25 10:36:31;;;;;;;2.35;0.52;;;;;;;16.06;61.92;101570.44;3578654;40;20351;-79
2021/06/25 10:39:25;;;;;;;4.28;0.90;;;;;;;16.06;62.21;101566.94;3564011;40;20103;-79
2021/06/25 10:41:57;;;;;;;4.45;0.80;;;;;;;15.99;61.05;101561.00;3572582;40;20056;-79
2021/06/25 10:44:34;;;;;;;2.10;0.90;;;;;;;15.99;61.82;101565.44;3550970;40;20056;-79
2021/06/25 10:47:22;;;;;;;2.80;0.93;;;;;;;15.96;62.29;101571.63;3561757;40;20081;-79
2021/06/25 10:50:14;;;;;;;5.68;1.45;;;;;;;15.96;63.11;101565.50;3577253;40;20507;-79
2021/06/25 10:53:06;;;;;;;3.63;0.95;;;;;;;15.93;62.92;101565.63;3565032;40;20813;-78
2021/06/25 10:55:45;;;;;;;4.43;0.90;;;;;;;15.88;62.44;101564.91;3580879;40;20087;-79
2021/06/25 10:58:23;;;;;;;4.32;0.98;;;;;;;15.92;62.83;101569.19;3562620;40;20049;-79
2021/06/25 11:00:58;;;;;;;5.68;1.33;;;;;;;15.94;62.44;101567.34;3560963;40;20061;-79
2021/06/25 11:03:41;;;;;;;4.85;1.05;;;;;;;15.96;62.49;101570.78;3558620;40;20482;-79
2021/06/25 11:06:29;;;;;;;2.72;0.80;;;;;;;15.94;62.70;101575.25;3559725;40;21544;-79
2021/06/25 11:09:06;;;;;;;4.15;1.13;;;;;;;15.99;62.16;101570.69;3568435;40;20085;-79
2021/06/25 11:11:35;;;;;;;2.07;0.63;;;;;;;15.98;61.62;101563.72;3577737;40;20040;-79
2021/06/25 11:14:30;;;;;;;3.30;0.60;;;;;;;16.04;62.43;101568.78;3577473;40;20311;-79
2021/06/25 11:16:56;;;;;;;1.52;0.57;;;;;;;15.94;60.70;101567.34;3573891;40;20113;-79
2021/06/25 11:19:40;;;;;;;1.80;0.50;;;;;;;16.00;61.55;101572.41;3575058;40;20056;-78
2021/06/25 11:22:52;;;;;;;1.27;0.70;;;;;;;16.00;62.46;101570.63;3564765;40;20783;-79
2021/06/25 11:25:57;;;;;;;0.98;0.50;;;;;;;16.02;62.09;101573.25;3534675;40;20058;-79
2021/06/25 11:28:51;;;;;;;3.70;0.85;;;;;;;16.02;62.08;101570.59;3537743;40;20132;-79
2021/06/25 11:31:20;;;;;;;4.47;0.82;;;;;;;16.00;61.10;101578.53;3535880;40;20067;-79
2021/06/25 11:36:28;;;;;;;2.55;0.60;;;;;;;16.05;62.20;101581.03;3572501;40;20080;-79
2021/06/25 11:39:24;;;;;;;2.45;0.70;;;;;;;16.06;61.58;101575.72;3568822;40;20041;-79
2021/06/25 11:41:56;;;;;;;1.08;0.50;;;;;;;16.11;61.45;101580.84;3555805;40;20072;-79
2021/06/25 11:44:41;;;;;;;3.08;0.75;;;;;;;16.16;61.52;101584.19;3561845;40;20084;-79
2021/06/25 11:47:17;;;;;;;1.65;0.40;;;;;;;16.20;61.76;101580.53;3557488;40;20062;-78
2021/06/25 11:52:24;;;;;;;3.55;0.60;;;;;;;16.24;61.46;101582.19;3552140;40;20050;-78
2021/06/25 11:54:56;;;;;;;2.85;0.80;;;;;;;16.27;61.02;101590.00;3569002;40;20052;-79
2021/06/25 11:57:32;;;;;;;2.55;0.60;;;;;;;16.29;61.01;101590.81;3556458;40;20085;-79
2021/06/25 12:00:12;;;;;;;1.45;0.50;;;;;;;16.29;60.99;101577.63;3579882;40;20059;-79
2021/06/25 12:02:54;;;;;;;3.00;0.60;;;;;;;16.33;60.43;101576.63;3549175;40;20049;-79
2021/06/25 12:05:29;;;;;;;2.80;0.50;;;;;;;16.43;60.87;101584.22;3563420;40;20060;-79
2021/06/25 12:08:15;;;;;;;1.65;0.50;;;;;;;16.49;59.95;101586.66;3569430;40;20089;-79
2021/06/25 12:10:57;;;;;;;1.70;0.50;;;;;;;16.54;60.19;101584.72;3561675;40;20112;-79